Time;durP1;ratioP1;P1;durP2;ratioP2;P2;SDS_P1;SDS_P2;PMS_P1;PMS_P2;Temp;Humidity;BMP_temperature;BMP_pressure;BME280_temperature;BME280_humidity;BME280_pressure;Samples;Min_cycle;Max_cycle;Signal;HPM_P1;HPM_P2
2024/01/12 00:01:43;;;;;;;46.35;21.33;;;;;;;;;;5102829;28;20090;-73
2024/01/12 00:04:08;;;;;;;47.07;22.43;;;;;;;;;;5105659;28;20482;-73
2024/01/12 00:06:33;;;;;;;49.90;22.27;;;;;;;;;;5108141;28;20274;-73
2024/01/12 00:08:58;;;;;;;48.57;22.10;;;;;;;;;;5103728;28;20734;-73
2024/01/12 00:11:23;;;;;;;46.60;21.43;;;;;;;;;;5105808;28;20266;-73
2024/01/12 00:13:49;;;;;;;50.27;22.37;;;;;;;;;;5109505;28;20758;-73
2024/01/12 00:16:14;;;;;;;43.90;21.75;;;;;;;;;;5105822;28;20265;-73
2024/01/12 00:18:40;;;;;;;45.22;20.23;;;;;;;;;;5107750;28;20487;-73
2024/01/12 00:21:05;;;;;;;53.23;22.97;;;;;;;;;;5107467;28;20530;-73
2024/01/12 00:23:30;;;;;;;47.23;21.80;;;;;;;;;;5109458;28;20353;-73
2024/01/12 00:25:59;;;;;;;48.43;22.30;;;;;;;;;;5104352;28;20645;-73
2024/01/12 00:28:27;;;;;;;53.80;23.40;;;;;;;;;;5111099;28;20269;-73
2024/01/12 00:30:53;;;;;;;56.83;24.17;;;;;;;;;;5106190;28;20526;-73
2024/01/12 00:33:18;;;;;;;49.95;22.77;;;;;;;;;;5106710;28;20047;-73
2024/01/12 00:35:43;;;;;;;52.23;23.17;;;;;;;;;;5107454;28;20011;-73
2024/01/12 00:38:08;;;;;;;50.87;22.70;;;;;;;;;;5108799;28;20410;-73
2024/01/12 00:40:33;;;;;;;52.70;23.70;;;;;;;;;;5106517;28;20273;-73
2024/01/12 00:42:58;;;;;;;53.03;24.08;;;;;;;;;;5110262;28;20783;-73
2024/01/12 00:45:24;;;;;;;48.13;22.67;;;;;;;;;;5104554;28;20012;-73
2024/01/12 00:47:49;;;;;;;53.30;24.33;;;;;;;;;;5107554;28;20266;-73
2024/01/12 00:50:14;;;;;;;50.40;23.67;;;;;;;;;;5104323;28;20635;-73
2024/01/12 00:52:39;;;;;;;50.03;24.17;;;;;;;;;;5110862;28;20052;-73
2024/01/12 00:55:04;;;;;;;52.20;23.93;;;;;;;;;;5103795;28;20043;-73
2024/01/12 00:57:30;;;;;;;56.63;24.58;;;;;;;;;;5110802;28;20277;-73
2024/01/12 00:59:55;;;;;;;50.38;23.98;;;;;;;;;;5106040;28;20149;-73
2024/01/12 01:02:20;;;;;;;51.63;23.77;;;;;;;;;;5113859;28;20020;-73
2024/01/12 01:04:45;;;;;;;55.43;24.63;;;;;;;;;;5103563;28;20278;-72
2024/01/12 01:07:10;;;;;;;51.97;24.83;;;;;;;;;;5108841;28;20311;-73
2024/01/12 01:09:35;;;;;;;54.67;24.40;;;;;;;;;;5101755;28;20308;-72
2024/01/12 01:12:01;;;;;;;48.65;22.90;;;;;;;;;;5113691;28;20266;-73
2024/01/12 01:14:26;;;;;;;58.92;25.23;;;;;;;;;;5106245;28;20366;-73
2024/01/12 01:16:52;;;;;;;49.33;24.08;;;;;;;;;;5105249;28;20382;-73
2024/01/12 01:19:17;;;;;;;52.38;22.98;;;;;;;;;;5110808;28;20036;-72
2024/01/12 01:21:43;;;;;;;55.47;23.38;;;;;;;;;;5103374;28;20020;-72
2024/01/12 01:24:08;;;;;;;57.10;24.70;;;;;;;;;;5109492;28;20035;-72
2024/01/12 01:26:33;;;;;;;53.70;24.25;;;;;;;;;;5103189;28;20043;-73
2024/01/12 01:28:59;;;;;;;54.87;24.90;;;;;;;;;;5110372;28;20022;-73
2024/01/12 01:31:24;;;;;;;52.47;24.42;;;;;;;;;;5107215;28;20760;-73
2024/01/12 01:33:49;;;;;;;54.40;23.37;;;;;;;;;;5109943;28;20015;-73
2024/01/12 01:36:14;;;;;;;52.20;26.10;;;;;;;;;;5102968;28;20274;-73
2024/01/12 01:38:39;;;;;;;55.57;23.77;;;;;;;;;;5110377;28;20304;-72
2024/01/12 01:41:04;;;;;;;52.60;25.27;;;;;;;;;;5105682;28;20273;-73
2024/01/12 01:43:30;;;;;;;52.77;24.67;;;;;;;;;;5106262;28;20265;-73
2024/01/12 01:45:55;;;;;;;55.65;23.90;;;;;;;;;;5111422;28;20767;-72
2024/01/12 01:48:20;;;;;;;52.57;23.03;;;;;;;;;;5108196;28;20532;-73
2024/01/12 01:50:47;;;;;;;59.17;24.65;;;;;;;;;;5107573;28;20303;-73
2024/01/12 01:53:12;;;;;;;54.03;24.23;;;;;;;;;;5107065;28;20383;-73
2024/01/12 01:55:37;;;;;;;54.15;24.98;;;;;;;;;;5103323;28;20035;-73
2024/01/12 01:58:02;;;;;;;51.38;23.55;;;;;;;;;;5104727;28;20031;-72
2024/01/12 02:00:28;;;;;;;51.10;23.85;;;;;;;;;;5103170;28;20051;-73
2024/01/12 02:02:54;;;;;;;53.92;24.70;;;;;;;;;;5111880;28;20031;-73
2024/01/12 02:05:19;;;;;;;57.55;24.55;;;;;;;;;;5103568;28;20081;-72
2024/01/12 02:07:44;;;;;;;50.53;23.45;;;;;;;;;;5109599;28;20053;-73
2024/01/12 02:10:09;;;;;;;51.77;24.20;;;;;;;;;;5109964;28;20089;-73
2024/01/12 02:12:37;;;;;;;53.45;23.90;;;;;;;;;;5105941;28;20278;-73
2024/01/12 02:15:08;;;;;;;55.65;25.48;;;;;;;;;;5106008;28;20127;-73
2024/01/12 02:17:34;;;;;;;48.97;22.73;;;;;;;;;;5104019;28;20020;-73
2024/01/12 02:19:59;;;;;;;55.33;24.83;;;;;;;;;;5106180;28;20026;-73
2024/01/12 02:22:25;;;;;;;58.38;26.27;;;;;;;;;;5111910;28;20352;-73
2024/01/12 02:24:50;;;;;;;51.80;24.65;;;;;;;;;;5102326;28;20464;-73
2024/01/12 02:27:16;;;;;;;59.25;25.38;;;;;;;;;;5111824;28;20423;-73
2024/01/12 02:29:41;;;;;;;54.78;23.98;;;;;;;;;;5105004;28;20099;-73
2024/01/12 02:32:07;;;;;;;51.78;25.13;;;;;;;;;;5111228;28;20474;-73
2024/01/12 02:34:32;;;;;;;51.22;23.88;;;;;;;;;;5106473;28;20028;-73
2024/01/12 02:36:57;;;;;;;55.10;25.58;;;;;;;;;;5112696;28;20375;-73
2024/01/12 02:39:22;;;;;;;53.33;24.52;;;;;;;;;;5103142;28;20119;-73
2024/01/12 02:41:47;;;;;;;50.27;24.30;;;;;;;;;;5102002;28;20382;-72
2024/01/12 02:44:13;;;;;;;52.43;23.13;;;;;;;;;;5102772;28;20300;-73
2024/01/12 02:46:38;;;;;;;49.75;23.30;;;;;;;;;;5107883;28;20344;-73
2024/01/12 02:49:04;;;;;;;54.25;24.98;;;;;;;;;;5106116;28;20024;-73
2024/01/12 02:51:29;;;;;;;57.10;25.03;;;;;;;;;;5108089;28;20493;-73
2024/01/12 02:53:54;;;;;;;53.60;25.10;;;;;;;;;;5099708;28;20273;-74
2024/01/12 02:56:20;;;;;;;52.17;25.17;;;;;;;;;;5106137;28;20016;-73
2024/01/12 02:58:45;;;;;;;54.23;24.00;;;;;;;;;;5111140;28;20070;-73
2024/01/12 03:01:10;;;;;;;53.87;26.23;;;;;;;;;;5106440;28;20274;-73
2024/01/12 03:03:35;;;;;;;53.03;24.85;;;;;;;;;;5102884;28;20357;-73
2024/01/12 03:06:01;;;;;;;55.13;25.67;;;;;;;;;;5110251;28;20490;-73
2024/01/12 03:08:27;;;;;;;51.03;23.27;;;;;;;;;;5107511;28;20276;-73
2024/01/12 03:10:52;;;;;;;54.75;24.33;;;;;;;;;;5108054;28;20077;-73
2024/01/12 03:13:18;;;;;;;60.23;25.07;;;;;;;;;;5104812;28;20376;-73
2024/01/12 03:15:43;;;;;;;56.42;25.13;;;;;;;;;;5107218;28;20419;-73
2024/01/12 03:18:08;;;;;;;53.37;24.83;;;;;;;;;;5100997;28;20046;-73
2024/01/12 03:20:33;;;;;;;53.40;24.33;;;;;;;;;;5108049;28;20285;-73
2024/01/12 03:22:59;;;;;;;49.75;23.58;;;;;;;;;;5108729;28;20319;-72
2024/01/12 03:25:25;;;;;;;56.03;25.73;;;;;;;;;;5105880;28;20467;-73
2024/01/12 03:27:50;;;;;;;51.22;23.80;;;;;;;;;;5103739;28;20018;-73
2024/01/12 03:30:15;;;;;;;51.27;24.50;;;;;;;;;;5105062;28;20023;-73
2024/01/12 03:32:42;;;;;;;50.58;24.02;;;;;;;;;;5109228;28;20341;-73
2024/01/12 03:35:07;;;;;;;50.00;24.23;;;;;;;;;;5105663;28;20494;-73
2024/01/12 03:37:33;;;;;;;55.05;24.52;;;;;;;;;;5106425;28;20027;-73
2024/01/12 03:39:58;;;;;;;50.90;24.25;;;;;;;;;;5103296;28;20027;-73
2024/01/12 03:42:23;;;;;;;50.60;24.30;;;;;;;;;;5101427;28;20095;-73
2024/01/12 03:44:48;;;;;;;53.57;25.27;;;;;;;;;;5103370;28;20281;-73
2024/01/12 03:47:13;;;;;;;50.17;24.47;;;;;;;;;;5102421;28;20764;-73
2024/01/12 03:49:38;;;;;;;54.10;25.13;;;;;;;;;;5103893;28;20322;-73
2024/01/12 03:52:05;;;;;;;54.78;24.80;;;;;;;;;;5106893;28;20554;-73
2024/01/12 03:54:30;;;;;;;53.97;24.55;;;;;;;;;;5105167;28;20046;-73
2024/01/12 03:56:56;;;;;;;52.67;25.47;;;;;;;;;;5107130;28;20417;-73
2024/01/12 03:59:21;;;;;;;58.33;25.30;;;;;;;;;;5112434;28;20305;-73
2024/01/12 04:01:46;;;;;;;54.53;24.90;;;;;;;;;;5111444;28;20016;-73
2024/01/12 04:04:11;;;;;;;53.20;24.95;;;;;;;;;;5106232;28;20326;-73
2024/01/12 04:06:37;;;;;;;54.45;23.42;;;;;;;;;;5116381;28;20027;-73
2024/01/12 04:09:02;;;;;;;53.38;24.73;;;;;;;;;;5110496;28;20024;-73
2024/01/12 04:11:27;;;;;;;50.67;23.95;;;;;;;;;;5109876;28;20039;-73
2024/01/12 04:13:53;;;;;;;60.85;25.02;;;;;;;;;;5107439;28;20378;-73
2024/01/12 04:16:18;;;;;;;54.33;25.23;;;;;;;;;;5106357;28;20046;-73
2024/01/12 04:18:44;;;;;;;60.13;25.10;;;;;;;;;;5107726;28;20301;-73
2024/01/12 04:21:09;;;;;;;54.72;24.75;;;;;;;;;;5108897;28;20023;-73
2024/01/12 04:23:34;;;;;;;56.47;25.73;;;;;;;;;;5106488;28;20032;-73
2024/01/12 04:25:59;;;;;;;56.53;24.50;;;;;;;;;;5110077;28;20016;-73
2024/01/12 04:28:25;;;;;;;54.42;25.27;;;;;;;;;;5109407;28;20261;-73
2024/01/12 04:30:50;;;;;;;52.90;24.23;;;;;;;;;;5114698;28;20517;-73
2024/01/12 04:33:15;;;;;;;53.30;25.50;;;;;;;;;;5106169;28;20266;-73
2024/01/12 04:35:41;;;;;;;56.67;23.45;;;;;;;;;;5111839;28;20266;-73
2024/01/12 04:38:08;;;;;;;54.20;24.50;;;;;;;;;;5107969;28;20024;-73
2024/01/12 04:40:33;;;;;;;52.47;23.33;;;;;;;;;;5114695;28;20047;-73
2024/01/12 04:42:58;;;;;;;49.77;23.97;;;;;;;;;;5105443;28;20042;-73
2024/01/12 04:45:23;;;;;;;53.00;25.17;;;;;;;;;;5108633;28;20281;-73
2024/01/12 04:47:48;;;;;;;52.85;24.83;;;;;;;;;;5113734;28;20296;-73
2024/01/12 04:50:14;;;;;;;50.70;23.43;;;;;;;;;;5109759;28;20032;-73
2024/01/12 04:52:39;;;;;;;54.75;25.23;;;;;;;;;;5106993;28;20255;-73
2024/01/12 04:55:04;;;;;;;54.38;25.02;;;;;;;;;;5109969;28;20039;-73
2024/01/12 04:57:29;;;;;;;53.65;25.10;;;;;;;;;;5109513;28;20099;-73
2024/01/12 04:59:55;;;;;;;58.65;26.83;;;;;;;;;;5112396;28;20019;-73
2024/01/12 05:02:20;;;;;;;55.07;24.17;;;;;;;;;;5104591;28;20123;-73
2024/01/12 05:04:45;;;;;;;52.13;23.53;;;;;;;;;;5106855;28;20285;-73
2024/01/12 05:07:11;;;;;;;52.78;24.52;;;;;;;;;;5105865;28;20436;-73
2024/01/12 05:09:36;;;;;;;52.27;24.60;;;;;;;;;;5107047;28;20027;-73
2024/01/12 05:12:04;;;;;;;59.17;23.80;;;;;;;;;;5110635;28;20593;-73
2024/01/12 05:14:29;;;;;;;55.58;23.38;;;;;;;;;;5104585;28;20289;-73
2024/01/12 05:16:55;;;;;;;54.47;23.42;;;;;;;;;;5110623;28;20506;-73
2024/01/12 05:19:20;;;;;;;50.97;24.90;;;;;;;;;;5108309;28;20123;-73
2024/01/12 05:21:45;;;;;;;48.20;23.93;;;;;;;;;;5105282;28;20047;-73
2024/01/12 05:24:10;;;;;;;53.57;23.93;;;;;;;;;;5111242;28;20323;-73
2024/01/12 05:26:36;;;;;;;52.83;24.50;;;;;;;;;;5105401;28;20270;-73
2024/01/12 05:29:02;;;;;;;49.17;24.10;;;;;;;;;;5108344;28;20362;-73
2024/01/12 05:31:27;;;;;;;54.40;24.95;;;;;;;;;;5111624;28;20094;-73
2024/01/12 05:33:52;;;;;;;52.60;23.40;;;;;;;;;;5109339;28;20510;-73
2024/01/12 05:36:17;;;;;;;50.03;24.07;;;;;;;;;;5112295;28;20026;-73
2024/01/12 05:38:42;;;;;;;53.03;23.55;;;;;;;;;;5102885;28;20298;-73
2024/01/12 05:41:07;;;;;;;51.80;23.90;;;;;;;;;;5114328;28;20035;-73
2024/01/12 05:43:32;;;;;;;46.80;22.80;;;;;;;;;;5104484;28;20285;-73
2024/01/12 05:45:58;;;;;;;53.93;24.67;;;;;;;;;;5110760;28;20269;-73
2024/01/12 05:48:23;;;;;;;46.93;23.00;;;;;;;;;;5102939;28;20284;-73
2024/01/12 05:50:48;;;;;;;47.53;22.73;;;;;;;;;;5109186;28;20273;-73
2024/01/12 05:53:13;;;;;;;51.63;22.85;;;;;;;;;;5099285;28;20293;-73
2024/01/12 05:55:38;;;;;;;45.15;22.42;;;;;;;;;;5107500;28;20051;-73
2024/01/12 05:58:04;;;;;;;47.20;22.07;;;;;;;;;;5109171;28;20115;-73
2024/01/12 06:00:29;;;;;;;47.63;21.73;;;;;;;;;;5102799;28;20756;-73
2024/01/12 06:02:54;;;;;;;48.93;22.33;;;;;;;;;;5097457;28;20099;-73
2024/01/12 06:05:19;;;;;;;50.97;22.53;;;;;;;;;;5110089;28;20277;-73
2024/01/12 06:07:44;;;;;;;45.70;21.40;;;;;;;;;;5105936;28;20255;-73
2024/01/12 06:10:10;;;;;;;49.23;22.27;;;;;;;;;;5107809;28;20022;-73
2024/01/12 06:12:35;;;;;;;51.55;21.42;;;;;;;;;;5106952;28;20669;-73
2024/01/12 06:15:00;;;;;;;47.78;21.45;;;;;;;;;;5106890;28;20400;-72
2024/01/12 06:17:26;;;;;;;42.67;21.13;;;;;;;;;;5104091;28;20379;-72
2024/01/12 06:19:51;;;;;;;45.55;21.13;;;;;;;;;;5106090;28;20028;-72
2024/01/12 06:22:16;;;;;;;50.70;21.20;;;;;;;;;;5110309;28;20019;-72
2024/01/12 06:24:41;;;;;;;50.20;20.38;;;;;;;;;;5103102;28;20311;-72
2024/01/12 06:27:06;;;;;;;43.70;19.63;;;;;;;;;;5105177;28;20011;-73
2024/01/12 06:29:32;;;;;;;44.45;19.35;;;;;;;;;;5104030;28;20288;-72
2024/01/12 06:31:57;;;;;;;42.30;20.13;;;;;;;;;;5109014;28;20023;-72
2024/01/12 06:34:22;;;;;;;45.37;21.03;;;;;;;;;;5110066;28;20019;-73
2024/01/12 06:36:47;;;;;;;43.70;20.63;;;;;;;;;;5109374;28;20280;-73
2024/01/12 06:39:12;;;;;;;43.40;20.23;;;;;;;;;;5104651;28;20329;-73
2024/01/12 06:41:41;;;;;;;45.57;20.30;;;;;;;;;;5105026;28;20082;-73
2024/01/12 06:44:07;;;;;;;38.13;17.80;;;;;;;;;;5109040;28;20653;-72
2024/01/12 06:46:32;;;;;;;41.57;18.83;;;;;;;;;;5111575;28;20566;-72
2024/01/12 06:48:57;;;;;;;42.83;18.88;;;;;;;;;;5104746;28;20285;-72
2024/01/12 06:51:23;;;;;;;39.67;18.50;;;;;;;;;;5113068;28;20049;-73
2024/01/12 06:53:48;;;;;;;42.55;18.27;;;;;;;;;;5101061;28;20320;-73
2024/01/12 06:56:20;;;;;;;41.90;17.97;;;;;;;;;;5107438;28;20044;-73
2024/01/12 06:58:45;;;;;;;39.42;18.70;;;;;;;;;;5104180;28;20300;-72
2024/01/12 07:01:10;;;;;;;43.17;17.33;;;;;;;;;;5106515;28;20012;-73
2024/01/12 07:03:35;;;;;;;40.73;17.97;;;;;;;;;;5105195;28;20791;-73
2024/01/12 07:06:00;;;;;;;38.57;18.10;;;;;;;;;;5103101;28;20270;-73
2024/01/12 07:08:25;;;;;;;35.22;16.48;;;;;;;;;;5102927;28;20304;-73
2024/01/12 07:10:51;;;;;;;38.63;18.35;;;;;;;;;;5110118;28;20031;-72
2024/01/12 07:13:16;;;;;;;41.77;17.70;;;;;;;;;;5103148;28;20047;-73
2024/01/12 07:15:42;;;;;;;37.03;17.15;;;;;;;;;;5107386;28;20266;-73
2024/01/12 07:18:07;;;;;;;42.63;17.33;;;;;;;;;;5105309;28;20080;-73
2024/01/12 07:20:32;;;;;;;39.63;16.50;;;;;;;;;;5109342;28;20378;-72
2024/01/12 07:22:57;;;;;;;32.77;15.73;;;;;;;;;;5106823;28;20510;-72
2024/01/12 07:25:22;;;;;;;40.83;16.53;;;;;;;;;;5112195;28;20276;-73
2024/01/12 07:27:47;;;;;;;32.77;15.13;;;;;;;;;;5103578;28;21088;-73
2024/01/12 07:30:13;;;;;;;35.97;15.75;;;;;;;;;;5106113;28;20281;-73
2024/01/12 07:32:38;;;;;;;31.83;14.57;;;;;;;;;;5103794;28;20027;-73
2024/01/12 07:35:03;;;;;;;34.07;15.57;;;;;;;;;;5107271;28;20019;-73
2024/01/12 07:37:28;;;;;;;38.92;15.70;;;;;;;;;;5103788;28;20288;-73
2024/01/12 07:39:54;;;;;;;35.17;15.03;;;;;;;;;;5109200;28;20118;-73
2024/01/12 07:42:19;;;;;;;32.58;15.05;;;;;;;;;;5106671;28;20284;-72
2024/01/12 07:44:44;;;;;;;31.30;15.10;;;;;;;;;;5107507;28;20039;-72
2024/01/12 07:47:09;;;;;;;39.33;15.57;;;;;;;;;;5111351;28;20344;-73
2024/01/12 07:49:35;;;;;;;39.40;15.70;;;;;;;;;;5105863;28;20016;-73
2024/01/12 07:52:00;;;;;;;36.73;15.10;;;;;;;;;;5100550;28;20141;-73
2024/01/12 07:54:25;;;;;;;34.05;15.68;;;;;;;;;;5102806;28;20699;-73
2024/01/12 07:56:51;;;;;;;37.58;15.32;;;;;;;;;;5102578;28;20072;-73
2024/01/12 07:59:16;;;;;;;36.30;15.30;;;;;;;;;;5101886;28;20028;-73
2024/01/12 08:01:41;;;;;;;35.17;14.73;;;;;;;;;;5103671;28;20370;-73
2024/01/12 08:04:06;;;;;;;33.75;14.63;;;;;;;;;;5101671;28;20273;-73
2024/01/12 08:06:32;;;;;;;39.70;16.52;;;;;;;;;;5103966;28;20122;-73
2024/01/12 08:08:57;;;;;;;38.15;15.52;;;;;;;;;;5103807;28;20106;-73
2024/01/12 08:11:23;;;;;;;38.97;16.00;;;;;;;;;;5101521;28;20012;-73
2024/01/12 08:13:48;;;;;;;35.17;15.75;;;;;;;;;;5103676;28;20478;-73
2024/01/12 08:16:13;;;;;;;30.88;14.88;;;;;;;;;;5103587;28;20470;-73
2024/01/12 08:18:38;;;;;;;35.43;14.53;;;;;;;;;;5102276;28;20060;-73
2024/01/12 08:21:03;;;;;;;34.07;15.00;;;;;;;;;;5105510;28;20270;-73
2024/01/12 08:23:28;;;;;;;29.95;14.48;;;;;;;;;;5103593;28;20270;-73
2024/01/12 08:25:54;;;;;;;33.70;15.70;;;;;;;;;;5110059;28;20362;-73
2024/01/12 08:28:19;;;;;;;29.13;15.45;;;;;;;;;;5105196;28;20019;-73
2024/01/12 08:30:44;;;;;;;35.07;14.90;;;;;;;;;;5109431;28;20026;-72
2024/01/12 08:33:10;;;;;;;33.17;14.53;;;;;;;;;;5106360;28;20757;-73
2024/01/12 08:35:35;;;;;;;35.00;14.23;;;;;;;;;;5108454;28;20365;-73
2024/01/12 08:38:01;;;;;;;32.33;13.98;;;;;;;;;;5099581;28;20035;-73
2024/01/12 08:40:26;;;;;;;34.83;14.27;;;;;;;;;;5108350;28;20015;-73
2024/01/12 08:42:51;;;;;;;34.20;14.27;;;;;;;;;;5108074;28;20027;-73
2024/01/12 08:45:16;;;;;;;33.10;14.73;;;;;;;;;;5112077;28;20748;-73
2024/01/12 08:47:42;;;;;;;37.85;14.70;;;;;;;;;;5109356;28;20073;-73
2024/01/12 08:50:07;;;;;;;32.27;14.83;;;;;;;;;;5106671;28;20019;-73
2024/01/12 08:52:32;;;;;;;34.63;14.98;;;;;;;;;;5101917;28;20258;-73
2024/01/12 08:54:57;;;;;;;31.10;14.70;;;;;;;;;;5110136;28;20080;-73
2024/01/12 08:57:22;;;;;;;30.33;14.70;;;;;;;;;;5103658;28;20289;-73
2024/01/12 08:59:48;;;;;;;32.70;14.63;;;;;;;;;;5108014;28;20292;-72
2024/01/12 09:02:14;;;;;;;31.85;14.38;;;;;;;;;;5111185;28;20348;-72
2024/01/12 09:04:39;;;;;;;32.53;14.93;;;;;;;;;;5107027;28;20024;-73
2024/01/12 09:07:05;;;;;;;35.20;15.57;;;;;;;;;;5110203;28;20019;-73
2024/01/12 09:09:30;;;;;;;33.42;14.75;;;;;;;;;;5109135;28;20028;-73
2024/01/12 09:11:55;;;;;;;37.20;13.73;;;;;;;;;;5110794;28;20026;-72
2024/01/12 09:14:20;;;;;;;30.00;14.27;;;;;;;;;;5107218;28;20749;-72
2024/01/12 09:16:46;;;;;;;30.65;13.95;;;;;;;;;;5106509;28;20360;-73
2024/01/12 09:19:11;;;;;;;33.47;14.88;;;;;;;;;;5111501;28;20463;-72
2024/01/12 09:21:37;;;;;;;34.87;15.53;;;;;;;;;;5109407;28;20028;-73
2024/01/12 09:24:03;;;;;;;33.08;15.32;;;;;;;;;;5107494;28;20289;-73
2024/01/12 09:26:28;;;;;;;32.65;14.70;;;;;;;;;;5110610;28;20391;-73
2024/01/12 09:28:53;;;;;;;30.52;14.57;;;;;;;;;;5105686;28;20375;-73
2024/01/12 09:31:19;;;;;;;30.53;14.73;;;;;;;;;;5107920;28;20467;-73
2024/01/12 09:33:44;;;;;;;32.20;14.53;;;;;;;;;;5106517;28;20311;-73
2024/01/12 09:36:09;;;;;;;31.45;14.93;;;;;;;;;;5111230;28;20733;-73
2024/01/12 09:38:34;;;;;;;29.02;14.43;;;;;;;;;;5106532;28;20039;-73
2024/01/12 09:41:02;;;;;;;30.50;14.77;;;;;;;;;;5113271;28;20036;-73
2024/01/12 09:43:28;;;;;;;30.20;13.60;;;;;;;;;;5107886;28;20297;-73
2024/01/12 09:45:55;;;;;;;33.75;14.93;;;;;;;;;;5104834;28;20020;-73
2024/01/12 09:48:21;;;;;;;33.38;15.15;;;;;;;;;;5101802;28;20022;-73
2024/01/12 09:50:46;;;;;;;34.35;15.30;;;;;;;;;;5109168;28;20015;-73
2024/01/12 09:53:12;;;;;;;30.15;13.90;;;;;;;;;;5098329;28;20028;-73
2024/01/12 09:55:37;;;;;;;31.67;15.07;;;;;;;;;;5106141;28;20422;-73
2024/01/12 09:58:04;;;;;;;29.77;14.57;;;;;;;;;;5107734;28;20285;-73
2024/01/12 10:00:31;;;;;;;30.70;15.60;;;;;;;;;;5113152;28;20270;-73
2024/01/12 10:02:58;;;;;;;32.67;14.30;;;;;;;;;;5102551;28;20019;-73
2024/01/12 10:05:24;;;;;;;34.17;14.52;;;;;;;;;;5111181;28;20540;-73
2024/01/12 10:07:49;;;;;;;27.75;14.38;;;;;;;;;;5109176;28;20460;-73
2024/01/12 10:10:14;;;;;;;31.48;13.63;;;;;;;;;;5107210;28;20031;-73
2024/01/12 10:12:39;;;;;;;30.40;14.23;;;;;;;;;;5102078;28;20032;-73
2024/01/12 10:15:07;;;;;;;26.50;12.80;;;;;;;;;;5108508;28;20019;-73
2024/01/12 10:17:33;;;;;;;25.65;14.25;;;;;;;;;;5102865;28;20256;-73
2024/01/12 10:19:58;;;;;;;33.95;15.05;;;;;;;;;;5106668;28;20053;-73
2024/01/12 10:22:23;;;;;;;34.93;15.63;;;;;;;;;;5105265;28;20463;-73
2024/01/12 10:25:03;;;;;;;30.83;13.77;;;;;;;;;;5103587;28;20277;-73
2024/01/12 10:27:28;;;;;;;26.35;13.40;;;;;;;;;;5105293;28;20018;-73
2024/01/12 10:29:55;;;;;;;27.98;14.00;;;;;;;;;;5104733;28;20016;-73
2024/01/12 10:32:20;;;;;;;30.60;13.70;;;;;;;;;;5104444;28;20107;-73
2024/01/12 10:34:49;;;;;;;31.48;13.85;;;;;;;;;;5104390;28;20094;-73
2024/01/12 10:37:15;;;;;;;28.73;13.40;;;;;;;;;;5105452;28;20031;-73
2024/01/12 10:39:40;;;;;;;26.42;12.35;;;;;;;;;;5104224;28;20080;-73
2024/01/12 10:42:08;;;;;;;25.05;13.00;;;;;;;;;;5104619;28;20008;-73
2024/01/12 10:44:33;;;;;;;31.00;12.80;;;;;;;;;;5104449;28;20023;-73
2024/01/12 10:47:03;;;;;;;30.30;12.98;;;;;;;;;;5104385;28;20456;-73
2024/01/12 10:49:34;;;;;;;27.33;12.23;;;;;;;;;;5105069;28;20019;-73
2024/01/12 10:52:11;;;;;;;28.70;12.65;;;;;;;;;;5100942;28;20020;-73
2024/01/12 10:54:47;;;;;;;28.73;13.07;;;;;;;;;;5106048;28;20122;-73
2024/01/12 10:57:13;;;;;;;25.27;13.32;;;;;;;;;;5102391;28;20042;-73
2024/01/12 10:59:40;;;;;;;31.05;13.10;;;;;;;;;;5105162;28;20466;-73
2024/01/12 11:02:05;;;;;;;30.80;13.85;;;;;;;;;;5103702;28;20044;-73
2024/01/12 11:04:31;;;;;;;28.40;13.38;;;;;;;;;;5103805;28;20023;-73
2024/01/12 11:06:59;;;;;;;33.85;14.80;;;;;;;;;;5103586;28;20433;-73
2024/01/12 11:09:24;;;;;;;34.70;13.85;;;;;;;;;;5103817;28;20024;-73
2024/01/12 11:11:53;;;;;;;28.95;14.38;;;;;;;;;;5104362;28;20160;-74
2024/01/12 11:14:20;;;;;;;33.92;14.13;;;;;;;;;;5103057;28;20034;-73
2024/01/12 11:16:46;;;;;;;28.17;12.88;;;;;;;;;;5104246;28;20018;-73
2024/01/12 11:19:12;;;;;;;33.83;14.55;;;;;;;;;;5104422;28;20447;-73
2024/01/12 11:21:40;;;;;;;31.20;12.68;;;;;;;;;;5102865;28;20051;-73
2024/01/12 11:24:06;;;;;;;26.13;12.38;;;;;;;;;;5104007;28;20474;-73
2024/01/12 11:26:31;;;;;;;27.27;13.30;;;;;;;;;;5103778;28;20117;-73
2024/01/12 11:28:58;;;;;;;28.50;12.80;;;;;;;;;;5102419;28;20036;-73
2024/01/12 11:31:24;;;;;;;28.52;13.43;;;;;;;;;;5110645;28;20077;-73
2024/01/12 11:33:53;;;;;;;31.40;13.75;;;;;;;;;;5105761;28;20039;-73
2024/01/12 11:36:18;;;;;;;24.63;12.35;;;;;;;;;;5106505;28;20438;-72
2024/01/12 11:38:43;;;;;;;26.90;13.27;;;;;;;;;;5101364;28;20067;-73
2024/01/12 11:41:12;;;;;;;30.55;13.70;;;;;;;;;;5109680;28;20273;-73
2024/01/12 11:43:37;;;;;;;30.05;13.15;;;;;;;;;;5101050;28;20063;-74
2024/01/12 11:46:03;;;;;;;27.52;13.90;;;;;;;;;;5102589;28;20471;-74
2024/01/12 11:48:28;;;;;;;30.75;14.00;;;;;;;;;;5108098;28;20478;-73
2024/01/12 11:50:53;;;;;;;28.02;14.02;;;;;;;;;;5103672;28;20099;-74
2024/01/12 11:53:19;;;;;;;35.37;14.40;;;;;;;;;;5108696;28;20051;-73
2024/01/12 11:55:44;;;;;;;29.95;14.20;;;;;;;;;;5102921;28;20823;-73
2024/01/12 11:58:11;;;;;;;26.98;13.48;;;;;;;;;;5103239;28;20024;-73
2024/01/12 12:00:36;;;;;;;35.78;15.07;;;;;;;;;;5110103;28;20411;-73
2024/01/12 12:03:02;;;;;;;27.80;12.80;;;;;;;;;;5099985;28;20051;-73
2024/01/12 12:05:28;;;;;;;32.78;13.52;;;;;;;;;;5107561;28;20282;-74
2024/01/12 12:07:53;;;;;;;30.42;13.88;;;;;;;;;;5100534;28;20031;-73
2024/01/12 12:10:19;;;;;;;27.25;13.60;;;;;;;;;;5109305;28;20110;-73
2024/01/12 12:12:44;;;;;;;24.08;12.65;;;;;;;;;;5105935;28;20458;-73
2024/01/12 12:15:12;;;;;;;26.33;12.63;;;;;;;;;;5107922;28;20035;-73
2024/01/12 12:17:40;;;;;;;27.25;12.50;;;;;;;;;;5106120;28;20402;-73
2024/01/12 12:20:10;;;;;;;27.15;11.93;;;;;;;;;;5109902;28;20383;-73
2024/01/12 12:22:35;;;;;;;25.35;13.35;;;;;;;;;;5114312;28;20490;-73
2024/01/12 12:25:01;;;;;;;30.77;12.32;;;;;;;;;;5109291;28;20024;-73
2024/01/12 12:27:26;;;;;;;27.77;12.65;;;;;;;;;;5107227;27;20024;-73
2024/01/12 12:29:51;;;;;;;31.48;12.90;;;;;;;;;;5112868;28;20019;-73
2024/01/12 12:32:17;;;;;;;26.47;12.33;;;;;;;;;;5106239;28;20023;-73
2024/01/12 12:34:45;;;;;;;23.25;11.35;;;;;;;;;;5107105;28;20342;-73
2024/01/12 12:37:13;;;;;;;26.75;11.38;;;;;;;;;;5112509;28;20081;-73
2024/01/12 12:39:38;;;;;;;31.45;12.60;;;;;;;;;;5112625;28;20062;-73
2024/01/12 12:42:04;;;;;;;28.90;12.85;;;;;;;;;;5105958;28;20047;-73
2024/01/12 12:44:31;;;;;;;27.50;12.32;;;;;;;;;;5103992;28;20094;-73
2024/01/12 12:46:57;;;;;;;27.27;13.00;;;;;;;;;;5103911;28;20491;-73
2024/01/12 12:49:29;;;;;;;29.00;12.32;;;;;;;;;;5112953;28;20016;-73
2024/01/12 12:51:54;;;;;;;27.95;13.00;;;;;;;;;;5113487;28;20043;-73
2024/01/12 12:54:20;;;;;;;25.70;11.63;;;;;;;;;;5112566;28;20471;-73
2024/01/12 12:56:46;;;;;;;25.80;12.13;;;;;;;;;;5110913;28;20349;-73
2024/01/12 12:59:12;;;;;;;22.92;12.05;;;;;;;;;;5100458;28;20441;-72
2024/01/12 13:01:38;;;;;;;26.13;12.07;;;;;;;;;;5102633;28;20016;-73
2024/01/12 13:04:03;;;;;;;23.60;11.50;;;;;;;;;;5105712;28;20035;-73
2024/01/12 13:06:28;;;;;;;24.38;11.82;;;;;;;;;;5106007;28;20036;-73
2024/01/12 13:08:53;;;;;;;26.53;12.77;;;;;;;;;;5106558;28;20387;-73
2024/01/12 13:11:18;;;;;;;26.47;12.10;;;;;;;;;;5110595;28;20290;-73
2024/01/12 13:13:43;;;;;;;36.57;12.27;;;;;;;;;;5107874;28;20261;-73
2024/01/12 13:16:09;;;;;;;24.17;11.70;;;;;;;;;;5104317;28;20764;-73
2024/01/12 13:18:34;;;;;;;24.83;11.77;;;;;;;;;;5107764;28;20301;-73
2024/01/12 13:20:59;;;;;;;31.08;12.30;;;;;;;;;;5107679;28;20012;-73
2024/01/12 13:23:24;;;;;;;23.58;12.45;;;;;;;;;;5104047;28;20039;-72
2024/01/12 13:25:50;;;;;;;28.67;12.48;;;;;;;;;;5114115;28;20421;-73
2024/01/12 13:28:16;;;;;;;28.95;13.30;;;;;;;;;;5104068;28;20482;-73
2024/01/12 13:30:41;;;;;;;26.17;12.88;;;;;;;;;;5111329;28;20030;-73
2024/01/12 13:33:07;;;;;;;28.20;12.55;;;;;;;;;;5108830;28;20019;-73
2024/01/12 13:35:33;;;;;;;26.83;13.02;;;;;;;;;;5113418;28;20102;-72
2024/01/12 13:37:58;;;;;;;27.02;12.60;;;;;;;;;;5108682;28;20430;-73
2024/01/12 13:40:23;;;;;;;30.43;13.43;;;;;;;;;;5101391;28;20023;-72
2024/01/12 13:42:49;;;;;;;22.97;12.63;;;;;;;;;;5111740;28;20285;-73
2024/01/12 13:45:14;;;;;;;24.48;12.23;;;;;;;;;;5108079;28;20258;-73
2024/01/12 13:47:39;;;;;;;27.67;13.02;;;;;;;;;;5108929;28;20020;-73
2024/01/12 13:50:05;;;;;;;28.45;12.60;;;;;;;;;;5110246;28;20490;-73
2024/01/12 13:52:31;;;;;;;26.17;12.55;;;;;;;;;;5100850;28;20016;-73
2024/01/12 13:54:56;;;;;;;23.60;12.15;;;;;;;;;;5108264;28;20044;-73
2024/01/12 13:57:21;;;;;;;26.25;12.65;;;;;;;;;;5107974;28;20065;-73
2024/01/12 13:59:46;;;;;;;30.02;12.88;;;;;;;;;;5112469;28;20496;-72
2024/01/12 14:02:11;;;;;;;24.15;11.38;;;;;;;;;;5104748;28;20015;-73
2024/01/12 14:04:37;;;;;;;30.83;11.93;;;;;;;;;;5106061;28;20098;-73
2024/01/12 14:07:02;;;;;;;26.02;11.25;;;;;;;;;;5109429;28;20103;-73